sensor_id;sensor_type;location;lat;lon;timestamp;temperature;humidity
24664;DHT22;12791;50.992;13.788;2024-03-29T05:00:48;7.10;77.20
24664;DHT22;12791;50.992;13.788;2024-03-29T05:03:16;7.10;76.80
24664;DHT22;12791;50.992;13.788;2024-03-29T05:05:43;7.20;76.60
24664;DHT22;12791;50.992;13.788;2024-03-29T05:08:10;7.30;76.20
24664;DHT22;12791;50.992;13.788;2024-03-29T05:10:36;7.30;75.90
24664;DHT22;12791;50.992;13.788;2024-03-29T05:13:03;7.50;75.40
24664;DHT22;12791;50.992;13.788;2024-03-29T05:15:31;7.60;74.20
24664;DHT22;12791;50.992;13.788;2024-03-29T05:17:59;7.70;72.90
24664;DHT22;12791;50.992;13.788;2024-03-29T05:20:26;8.00;72.10
24664;DHT22;12791;50.992;13.788;2024-03-29T05:22:52;7.80;72.40
24664;DHT22;12791;50.992;13.788;2024-03-29T05:25:19;7.80;73.00
24664;DHT22;12791;50.992;13.788;2024-03-29T05:27:46;7.80;72.40
24664;DHT22;12791;50.992;13.788;2024-03-29T05:30:12;7.90;72.50
24664;DHT22;12791;50.992;13.788;2024-03-29T05:32:39;7.90;72.50
24664;DHT22;12791;50.992;13.788;2024-03-29T05:35:08;8.00;71.20
24664;DHT22;12791;50.992;13.788;2024-03-29T05:37:35;8.10;70.30
24664;DHT22;12791;50.992;13.788;2024-03-29T05:40:02;8.10;69.60
24664;DHT22;12791;50.992;13.788;2024-03-29T05:42:32;8.20;69.90
24664;DHT22;12791;50.992;13.788;2024-03-29T05:45:00;8.20;70.00
24664;DHT22;12791;50.992;13.788;2024-03-29T05:47:26;8.20;70.70
24664;DHT22;12791;50.992;13.788;2024-03-29T05:49:54;8.20;71.10
24664;DHT22;12791;50.992;13.788;2024-03-29T05:52:22;8.20;72.00
24664;DHT22;12791;50.992;13.788;2024-03-29T05:54:49;8.40;72.60
24664;DHT22;12791;50.992;13.788;2024-03-29T05:57:15;8.30;73.10
24664;DHT22;12791;50.992;13.788;2024-03-29T05:59:42;8.30;72.80
24664;DHT22;12791;50.992;13.788;2024-03-29T06:02:09;8.30;72.30
24664;DHT22;12791;50.992;13.788;2024-03-29T06:04:35;8.30;72.30
24664;DHT22;12791;50.992;13.788;2024-03-29T06:07:04;8.30;72.70
24664;DHT22;12791;50.992;13.788;2024-03-29T06:09:32;8.30;72.30
24664;DHT22;12791;50.992;13.788;2024-03-29T06:11:59;8.00;71.60
24664;DHT22;12791;50.992;13.788;2024-03-29T06:14:26;8.30;71.90
24664;DHT22;12791;50.992;13.788;2024-03-29T06:17:11;8.30;71.90
24664;DHT22;12791;50.992;13.788;2024-03-29T06:19:49;8.30;71.60
24664;DHT22;12791;50.992;13.788;2024-03-29T06:22:17;8.30;72.30
24664;DHT22;12791;50.992;13.788;2024-03-29T06:24:45;8.40;73.20
24664;DHT22;12791;50.992;13.788;2024-03-29T06:27:12;8.40;73.70
24664;DHT22;12791;50.992;13.788;2024-03-29T06:29:41;8.30;73.40
24664;DHT22;12791;50.992;13.788;2024-03-29T06:32:08;8.40;74.30
24664;DHT22;12791;50.992;13.788;2024-03-29T06:34:35;8.40;74.10
24664;DHT22;12791;50.992;13.788;2024-03-29T06:37:02;8.40;73.90
24664;DHT22;12791;50.992;13.788;2024-03-29T06:39:29;8.40;72.70
24664;DHT22;12791;50.992;13.788;2024-03-29T06:41:57;8.40;70.80
24664;DHT22;12791;50.992;13.788;2024-03-29T06:44:23;8.50;71.00
24664;DHT22;12791;50.992;13.788;2024-03-29T06:46:50;8.00;70.70
24664;DHT22;12791;50.992;13.788;2024-03-29T06:49:17;8.50;70.90
24664;DHT22;12791;50.992;13.788;2024-03-29T06:51:44;8.60;69.70
24664;DHT22;12791;50.992;13.788;2024-03-29T06:54:10;8.60;69.00
24664;DHT22;12791;50.992;13.788;2024-03-29T06:56:37;8.70;68.50
24664;DHT22;12791;50.992;13.788;2024-03-29T06:59:05;8.70;68.00
24664;DHT22;12791;50.992;13.788;2024-03-29T07:01:32;8.80;67.80
24664;DHT22;12791;50.992;13.788;2024-03-29T07:03:58;8.80;67.00
24664;DHT22;12791;50.992;13.788;2024-03-29T07:06:25;8.90;66.50
24664;DHT22;12791;50.992;13.788;2024-03-29T07:08:51;8.60;66.10
24664;DHT22;12791;50.992;13.788;2024-03-29T07:11:18;9.00;66.10
24664;DHT22;12791;50.992;13.788;2024-03-29T07:13:45;9.00;66.10
24664;DHT22;12791;50.992;13.788;2024-03-29T07:16:13;9.00;66.10
24664;DHT22;12791;50.992;13.788;2024-03-29T07:18:40;9.10;65.70
24664;DHT22;12791;50.992;13.788;2024-03-29T07:21:06;9.10;65.50
24664;DHT22;12791;50.992;13.788;2024-03-29T07:23:33;9.20;65.60
24664;DHT22;12791;50.992;13.788;2024-03-29T07:26:01;9.20;65.00
24664;DHT22;12791;50.992;13.788;2024-03-29T07:28:28;9.20;64.40
24664;DHT22;12791;50.992;13.788;2024-03-29T07:30:55;9.30;64.70
24664;DHT22;12791;50.992;13.788;2024-03-29T07:33:24;9.70;65.30
24664;DHT22;12791;50.992;13.788;2024-03-29T07:35:53;9.40;63.40
24664;DHT22;12791;50.992;13.788;2024-03-29T07:38:20;9.40;62.30
24664;DHT22;12791;50.992;13.788;2024-03-29T07:40:47;9.50;62.60
24664;DHT22;12791;50.992;13.788;2024-03-29T07:43:14;9.50;62.90
24664;DHT22;12791;50.992;13.788;2024-03-29T07:45:41;9.50;62.70
24664;DHT22;12791;50.992;13.788;2024-03-29T07:48:11;9.20;61.50
24664;DHT22;12791;50.992;13.788;2024-03-29T07:50:40;9.60;61.80
24664;DHT22;12791;50.992;13.788;2024-03-29T07:53:07;9.60;62.10
24664;DHT22;12791;50.992;13.788;2024-03-29T07:55:35;9.60;62.40
24664;DHT22;12791;50.992;13.788;2024-03-29T07:58:01;9.70;61.50
24664;DHT22;12791;50.992;13.788;2024-03-29T08:00:31;9.70;61.30
24664;DHT22;12791;50.992;13.788;2024-03-29T08:02:58;9.70;60.20
24664;DHT22;12791;50.992;13.788;2024-03-29T08:05:25;9.90;60.20
24664;DHT22;12791;50.992;13.788;2024-03-29T08:07:54;9.70;60.50
24664;DHT22;12791;50.992;13.788;2024-03-29T08:10:21;9.80;60.80
24664;DHT22;12791;50.992;13.788;2024-03-29T08:12:48;9.80;60.50
24664;DHT22;12791;50.992;13.788;2024-03-29T08:15:15;9.90;60.90
24664;DHT22;12791;50.992;13.788;2024-03-29T08:17:43;9.90;61.20
24664;DHT22;12791;50.992;13.788;2024-03-29T08:20:10;10.00;58.90
24664;DHT22;12791;50.992;13.788;2024-03-29T08:22:37;10.10;58.10
24664;DHT22;12791;50.992;13.788;2024-03-29T08:25:05;10.10;56.60
24664;DHT22;12791;50.992;13.788;2024-03-29T08:27:32;10.20;54.40
24664;DHT22;12791;50.992;13.788;2024-03-29T08:29:59;10.30;50.40
24664;DHT22;12791;50.992;13.788;2024-03-29T08:32:26;10.40;48.50
24664;DHT22;12791;50.992;13.788;2024-03-29T08:34:52;10.40;47.80
24664;DHT22;12791;50.992;13.788;2024-03-29T08:37:19;10.60;47.50
24664;DHT22;12791;50.992;13.788;2024-03-29T08:39:46;10.60;48.00
24664;DHT22;12791;50.992;13.788;2024-03-29T08:42:13;10.70;48.00
24664;DHT22;12791;50.992;13.788;2024-03-29T08:44:39;10.80;48.10
24664;DHT22;12791;50.992;13.788;2024-03-29T08:47:06;10.90;47.40
24664;DHT22;12791;50.992;13.788;2024-03-29T08:49:34;11.00;47.00
24664;DHT22;12791;50.992;13.788;2024-03-29T08:52:00;11.10;47.10
24664;DHT22;12791;50.992;13.788;2024-03-29T08:54:30;11.20;46.40
24664;DHT22;12791;50.992;13.788;2024-03-29T08:56:57;11.30;45.30
24664;DHT22;12791;50.992;13.788;2024-03-29T08:59:26;11.40;44.40
24664;DHT22;12791;50.992;13.788;2024-03-29T09:01:53;11.50;42.60
24664;DHT22;12791;50.992;13.788;2024-03-29T09:04:19;11.70;40.60
24664;DHT22;12791;50.992;13.788;2024-03-29T09:06:46;11.80;40.80
24664;DHT22;12791;50.992;13.788;2024-03-29T09:09:13;11.80;41.00
24664;DHT22;12791;50.992;13.788;2024-03-29T09:11:40;11.90;40.30
24664;DHT22;12791;50.992;13.788;2024-03-29T09:14:06;12.00;38.20
24664;DHT22;12791;50.992;13.788;2024-03-29T09:16:36;12.10;37.60
24664;DHT22;12791;50.992;13.788;2024-03-29T09:19:03;12.20;38.30
24664;DHT22;12791;50.992;13.788;2024-03-29T09:21:30;12.20;37.50
24664;DHT22;12791;50.992;13.788;2024-03-29T09:23:57;12.30;36.70
24664;DHT22;12791;50.992;13.788;2024-03-29T09:26:23;12.40;36.50
24664;DHT22;12791;50.992;13.788;2024-03-29T09:28:50;12.50;36.70
24664;DHT22;12791;50.992;13.788;2024-03-29T09:31:17;12.90;36.90
24664;DHT22;12791;50.992;13.788;2024-03-29T09:33:45;12.60;35.00
24664;DHT22;12791;50.992;13.788;2024-03-29T09:36:12;12.70;35.50
24664;DHT22;12791;50.992;13.788;2024-03-29T09:38:40;12.70;35.40
24664;DHT22;12791;50.992;13.788;2024-03-29T09:41:10;12.80;35.50
24664;DHT22;12791;50.992;13.788;2024-03-29T09:43:42;12.80;35.30
24664;DHT22;12791;50.992;13.788;2024-03-29T09:46:10;12.90;33.90
24664;DHT22;12791;50.992;13.788;2024-03-29T09:48:38;12.90;33.60
24664;DHT22;12791;50.992;13.788;2024-03-29T09:51:08;13.00;33.30
24664;DHT22;12791;50.992;13.788;2024-03-29T09:53:36;13.00;32.40
24664;DHT22;12791;50.992;13.788;2024-03-29T09:56:03;13.00;32.50
24664;DHT22;12791;50.992;13.788;2024-03-29T09:58:30;13.10;32.20
24664;DHT22;12791;50.992;13.788;2024-03-29T10:00:57;13.10;32.20
24664;DHT22;12791;50.992;13.788;2024-03-29T10:03:24;13.20;32.60
24664;DHT22;12791;50.992;13.788;2024-03-29T10:05:54;13.20;31.90
24664;DHT22;12791;50.992;13.788;2024-03-29T10:08:23;13.20;31.00
24664;DHT22;12791;50.992;13.788;2024-03-29T10:10:50;13.20;31.80
24664;DHT22;12791;50.992;13.788;2024-03-29T10:13:17;13.20;32.10
24664;DHT22;12791;50.992;13.788;2024-03-29T10:15:44;13.30;32.70
24664;DHT22;12791;50.992;13.788;2024-03-29T10:18:14;13.30;33.10
24664;DHT22;12791;50.992;13.788;2024-03-29T10:20:43;13.40;33.20
24664;DHT22;12791;50.992;13.788;2024-03-29T10:23:10;13.40;33.10
24664;DHT22;12791;50.992;13.788;2024-03-29T10:25:38;13.50;32.40
24664;DHT22;12791;50.992;13.788;2024-03-29T10:28:05;13.50;32.70
24664;DHT22;12791;50.992;13.788;2024-03-29T10:30:33;13.50;32.30
24664;DHT22;12791;50.992;13.788;2024-03-29T10:33:00;13.60;31.00
24664;DHT22;12791;50.992;13.788;2024-03-29T10:35:27;13.70;31.00
24664;DHT22;12791;50.992;13.788;2024-03-29T10:37:54;13.80;31.30
24664;DHT22;12791;50.992;13.788;2024-03-29T10:40:21;13.80;30.50
24664;DHT22;12791;50.992;13.788;2024-03-29T10:42:52;13.90;30.90
24664;DHT22;12791;50.992;13.788;2024-03-29T10:45:20;14.00;31.10
24664;DHT22;12791;50.992;13.788;2024-03-29T10:47:49;14.00;30.70
24664;DHT22;12791;50.992;13.788;2024-03-29T10:50:19;14.10;30.70
24664;DHT22;12791;50.992;13.788;2024-03-29T10:52:48;14.20;31.30
24664;DHT22;12791;50.992;13.788;2024-03-29T10:55:16;14.30;30.00
24664;DHT22;12791;50.992;13.788;2024-03-29T10:57:43;14.40;30.50
24664;DHT22;12791;50.992;13.788;2024-03-29T11:00:15;14.50;30.20
24664;DHT22;12791;50.992;13.788;2024-03-29T11:02:48;14.50;30.00
24664;DHT22;12791;50.992;13.788;2024-03-29T11:05:17;14.60;29.60
24664;DHT22;12791;50.992;13.788;2024-03-29T11:07:45;14.60;29.40
24664;DHT22;12791;50.992;13.788;2024-03-29T11:10:15;14.70;29.40
24664;DHT22;12791;50.992;13.788;2024-03-29T11:12:59;14.60;29.30
24664;DHT22;12791;50.992;13.788;2024-03-29T11:15:31;14.70;29.40
24664;DHT22;12791;50.992;13.788;2024-03-29T11:17:58;14.70;27.70
24664;DHT22;12791;50.992;13.788;2024-03-29T11:20:27;14.70;27.80
24664;DHT22;12791;50.992;13.788;2024-03-29T11:23:02;14.70;28.10
24664;DHT22;12791;50.992;13.788;2024-03-29T11:25:41;14.70;28.20
24664;DHT22;12791;50.992;13.788;2024-03-29T11:28:07;14.70;28.70
24664;DHT22;12791;50.992;13.788;2024-03-29T11:30:45;14.70;28.50
24664;DHT22;12791;50.992;13.788;2024-03-29T11:33:31;14.70;28.10
24664;DHT22;12791;50.992;13.788;2024-03-29T11:36:00;14.70;28.30
24664;DHT22;12791;50.992;13.788;2024-03-29T11:38:31;14.70;28.20
24664;DHT22;12791;50.992;13.788;2024-03-29T11:41:05;14.60;28.30
24664;DHT22;12791;50.992;13.788;2024-03-29T11:43:32;14.70;28.50
24664;DHT22;12791;50.992;13.788;2024-03-29T11:46:01;14.70;28.60
24664;DHT22;12791;50.992;13.788;2024-03-29T11:48:30;14.70;27.80
24664;DHT22;12791;50.992;13.788;2024-03-29T11:50:58;14.80;28.30
24664;DHT22;12791;50.992;13.788;2024-03-29T11:53:25;14.80;28.70
24664;DHT22;12791;50.992;13.788;2024-03-29T11:55:53;14.70;28.80
24664;DHT22;12791;50.992;13.788;2024-03-29T11:58:21;14.80;29.40
24664;DHT22;12791;50.992;13.788;2024-03-29T12:00:49;14.80;28.70
24664;DHT22;12791;50.992;13.788;2024-03-29T12:03:17;14.80;29.20
24664;DHT22;12791;50.992;13.788;2024-03-29T12:05:46;14.80;29.50
24664;DHT22;12791;50.992;13.788;2024-03-29T12:08:14;14.80;29.50
24664;DHT22;12791;50.992;13.788;2024-03-29T12:10:41;14.80;29.50
24664;DHT22;12791;50.992;13.788;2024-03-29T12:13:08;14.80;29.40
24664;DHT22;12791;50.992;13.788;2024-03-29T12:15:35;14.90;29.50
24664;DHT22;12791;50.992;13.788;2024-03-29T12:18:03;14.90;29.50
24664;DHT22;12791;50.992;13.788;2024-03-29T12:20:32;14.90;29.50
24664;DHT22;12791;50.992;13.788;2024-03-29T12:23:00;14.90;29.50
24664;DHT22;12791;50.992;13.788;2024-03-29T12:25:28;14.90;29.50
24664;DHT22;12791;50.992;13.788;2024-03-29T12:27:55;14.90;29.50
24664;DHT22;12791;50.992;13.788;2024-03-29T12:30:22;15.00;30.00
24664;DHT22;12791;50.992;13.788;2024-03-29T12:32:59;15.00;29.90
24664;DHT22;12791;50.992;13.788;2024-03-29T12:35:27;15.00;30.00
24664;DHT22;12791;50.992;13.788;2024-03-29T12:37:58;15.00;29.60
24664;DHT22;12791;50.992;13.788;2024-03-29T12:40:25;15.00;29.60
24664;DHT22;12791;50.992;13.788;2024-03-29T12:42:54;15.10;29.70
24664;DHT22;12791;50.992;13.788;2024-03-29T12:45:22;15.10;29.20
24664;DHT22;12791;50.992;13.788;2024-03-29T12:47:49;15.20;28.80
24664;DHT22;12791;50.992;13.788;2024-03-29T12:50:19;15.20;29.00
24664;DHT22;12791;50.992;13.788;2024-03-29T12:52:54;15.20;29.20
24664;DHT22;12791;50.992;13.788;2024-03-29T12:55:22;15.20;29.40
24664;DHT22;12791;50.992;13.788;2024-03-29T12:57:50;15.30;29.00
24664;DHT22;12791;50.992;13.788;2024-03-29T13:00:18;15.30;28.60
24664;DHT22;12791;50.992;13.788;2024-03-29T13:02:45;15.40;28.40
24664;DHT22;12791;50.992;13.788;2024-03-29T13:05:12;15.40;28.60
24664;DHT22;12791;50.992;13.788;2024-03-29T13:07:39;15.40;29.10
24664;DHT22;12791;50.992;13.788;2024-03-29T13:10:08;15.40;29.60
24664;DHT22;12791;50.992;13.788;2024-03-29T13:12:39;15.40;29.90
24664;DHT22;12791;50.992;13.788;2024-03-29T13:15:16;15.40;29.90
24664;DHT22;12791;50.992;13.788;2024-03-29T13:17:43;15.50;30.00
24664;DHT22;12791;50.992;13.788;2024-03-29T13:20:11;15.50;29.70
24664;DHT22;12791;50.992;13.788;2024-03-29T13:22:38;15.50;29.20
24664;DHT22;12791;50.992;13.788;2024-03-29T13:25:09;15.50;28.80
24664;DHT22;12791;50.992;13.788;2024-03-29T13:27:36;15.60;29.00
24664;DHT22;12791;50.992;13.788;2024-03-29T13:30:04;15.50;29.50
24664;DHT22;12791;50.992;13.788;2024-03-29T13:32:31;15.50;30.00
24664;DHT22;12791;50.992;13.788;2024-03-29T13:34:59;15.50;30.20
24664;DHT22;12791;50.992;13.788;2024-03-29T13:37:25;15.50;30.00
24664;DHT22;12791;50.992;13.788;2024-03-29T13:39:53;15.50;30.00
24664;DHT22;12791;50.992;13.788;2024-03-29T13:42:21;15.50;30.00
24664;DHT22;12791;50.992;13.788;2024-03-29T13:44:49;15.60;30.00
24664;DHT22;12791;50.992;13.788;2024-03-29T13:47:16;15.60;30.00
24664;DHT22;12791;50.992;13.788;2024-03-29T13:49:43;15.60;30.70
24664;DHT22;12791;50.992;13.788;2024-03-29T13:52:11;15.50;31.10
24664;DHT22;12791;50.992;13.788;2024-03-29T13:54:38;15.50;31.50
24664;DHT22;12791;50.992;13.788;2024-03-29T13:57:08;15.50;31.50
24664;DHT22;12791;50.992;13.788;2024-03-29T13:59:37;15.50;30.90
24664;DHT22;12791;50.992;13.788;2024-03-29T14:02:03;15.50;31.00
24664;DHT22;12791;50.992;13.788;2024-03-29T14:04:30;15.40;31.10
24664;DHT22;12791;50.992;13.788;2024-03-29T14:06:57;15.50;31.20
24664;DHT22;12791;50.992;13.788;2024-03-29T14:09:24;15.50;30.60
24664;DHT22;12791;50.992;13.788;2024-03-29T14:11:51;15.50;30.30
24664;DHT22;12791;50.992;13.788;2024-03-29T14:14:18;15.50;30.40
24664;DHT22;12791;50.992;13.788;2024-03-29T14:16:46;15.60;30.50
24664;DHT22;12791;50.992;13.788;2024-03-29T14:19:13;15.50;30.60
24664;DHT22;12791;50.992;13.788;2024-03-29T14:21:40;15.50;30.60
24664;DHT22;12791;50.992;13.788;2024-03-29T14:24:07;15.70;30.30
24664;DHT22;12791;50.992;13.788;2024-03-29T14:26:33;15.50;30.80
24664;DHT22;12791;50.992;13.788;2024-03-29T14:29:00;15.50;31.30
24664;DHT22;12791;50.992;13.788;2024-03-29T14:31:27;15.50;31.20
24664;DHT22;12791;50.992;13.788;2024-03-29T14:33:55;15.50;31.70
24664;DHT22;12791;50.992;13.788;2024-03-29T14:36:21;15.50;31.80
24664;DHT22;12791;50.992;13.788;2024-03-29T14:38:48;15.50;31.80
24664;DHT22;12791;50.992;13.788;2024-03-29T14:41:15;15.50;32.00
24664;DHT22;12791;50.992;13.788;2024-03-29T14:43:42;15.40;32.20
24664;DHT22;12791;50.992;13.788;2024-03-29T14:46:09;15.50;31.90
24664;DHT22;12791;50.992;13.788;2024-03-29T14:48:36;15.40;31.80
24664;DHT22;12791;50.992;13.788;2024-03-29T14:51:04;15.50;31.70
24664;DHT22;12791;50.992;13.788;2024-03-29T14:53:31;15.40;31.80
24664;DHT22;12791;50.992;13.788;2024-03-29T14:55:57;15.40;31.80
24664;DHT22;12791;50.992;13.788;2024-03-29T14:58:27;15.40;31.60
24664;DHT22;12791;50.992;13.788;2024-03-29T15:00:54;15.30;31.30
24664;DHT22;12791;50.992;13.788;2024-03-29T15:03:21;15.40;30.90
24664;DHT22;12791;50.992;13.788;2024-03-29T15:05:48;15.30;31.00
24664;DHT22;12791;50.992;13.788;2024-03-29T15:08:16;15.30;31.30
24664;DHT22;12791;50.992;13.788;2024-03-29T15:10:43;15.30;30.40
24664;DHT22;12791;50.992;13.788;2024-03-29T15:13:09;15.40;30.10
24664;DHT22;12791;50.992;13.788;2024-03-29T15:15:36;15.40;30.10
24664;DHT22;12791;50.992;13.788;2024-03-29T15:18:03;15.40;30.30
24664;DHT22;12791;50.992;13.788;2024-03-29T15:20:29;15.40;30.70
24664;DHT22;12791;50.992;13.788;2024-03-29T15:22:56;15.40;30.80
24664;DHT22;12791;50.992;13.788;2024-03-29T15:25:25;15.40;30.50
24664;DHT22;12791;50.992;13.788;2024-03-29T15:27:52;15.40;30.30
24664;DHT22;12791;50.992;13.788;2024-03-29T15:30:36;15.40;30.20
24664;DHT22;12791;50.992;13.788;2024-03-29T15:33:07;15.40;30.20
24664;DHT22;12791;50.992;13.788;2024-03-29T15:35:33;15.40;30.30
24664;DHT22;12791;50.992;13.788;2024-03-29T15:37:59;15.40;30.40
24664;DHT22;12791;50.992;13.788;2024-03-29T15:40:30;15.30;30.70
24664;DHT22;12791;50.992;13.788;2024-03-29T15:42:57;15.30;31.00
24664;DHT22;12791;50.992;13.788;2024-03-29T15:45:24;15.30;30.80
24664;DHT22;12791;50.992;13.788;2024-03-29T15:47:50;15.30;31.60
24664;DHT22;12791;50.992;13.788;2024-03-29T15:50:17;15.30;31.20
24664;DHT22;12791;50.992;13.788;2024-03-29T15:52:44;15.20;31.30
24664;DHT22;12791;50.992;13.788;2024-03-29T15:55:10;15.20;31.30
24664;DHT22;12791;50.992;13.788;2024-03-29T15:57:38;15.20;31.60
24664;DHT22;12791;50.992;13.788;2024-03-29T16:00:07;15.10;32.00
24664;DHT22;12791;50.992;13.788;2024-03-29T16:02:46;15.10;32.70
24664;DHT22;12791;50.992;13.788;2024-03-29T16:05:13;15.10;34.10
24664;DHT22;12791;50.992;13.788;2024-03-29T16:07:40;15.10;34.80
24664;DHT22;12791;50.992;13.788;2024-03-29T16:10:07;15.10;35.60
24664;DHT22;12791;50.992;13.788;2024-03-29T16:12:33;15.00;36.50
24664;DHT22;12791;50.992;13.788;2024-03-29T16:15:01;15.00;37.60
24664;DHT22;12791;50.992;13.788;2024-03-29T16:17:29;15.00;39.20
24664;DHT22;12791;50.992;13.788;2024-03-29T16:19:54;15.00;40.00
24664;DHT22;12791;50.992;13.788;2024-03-29T16:22:21;15.00;40.80
24664;DHT22;12791;50.992;13.788;2024-03-29T16:24:47;15.00;41.60
24664;DHT22;12791;50.992;13.788;2024-03-29T16:27:13;14.90;42.60
24664;DHT22;12791;50.992;13.788;2024-03-29T16:29:40;14.90;43.70
24664;DHT22;12791;50.992;13.788;2024-03-29T16:32:08;14.90;44.20
24664;DHT22;12791;50.992;13.788;2024-03-29T16:34:34;14.90;44.20
24664;DHT22;12791;50.992;13.788;2024-03-29T16:37:01;14.90;44.20
24664;DHT22;12791;50.992;13.788;2024-03-29T16:39:27;14.80;43.70
24664;DHT22;12791;50.992;13.788;2024-03-29T16:41:54;14.90;43.70
24664;DHT22;12791;50.992;13.788;2024-03-29T16:44:22;14.90;43.90
24664;DHT22;12791;50.992;13.788;2024-03-29T16:46:49;14.80;44.60
24664;DHT22;12791;50.992;13.788;2024-03-29T16:49:16;15.20;45.40
24664;DHT22;12791;50.992;13.788;2024-03-29T16:51:43;14.80;45.30
24664;DHT22;12791;50.992;13.788;2024-03-29T16:54:08;14.80;46.10
24664;DHT22;12791;50.992;13.788;2024-03-29T16:56:35;14.80;46.80
24664;DHT22;12791;50.992;13.788;2024-03-29T16:59:01;14.80;47.10
24664;DHT22;12791;50.992;13.788;2024-03-29T17:01:29;14.70;47.50
24664;DHT22;12791;50.992;13.788;2024-03-29T17:03:54;14.70;48.60
24664;DHT22;12791;50.992;13.788;2024-03-29T17:06:22;14.60;50.30
24664;DHT22;12791;50.992;13.788;2024-03-29T17:08:48;14.60;50.80
24664;DHT22;12791;50.992;13.788;2024-03-29T17:11:15;14.60;50.50
24664;DHT22;12791;50.992;13.788;2024-03-29T17:13:41;14.50;50.00
24664;DHT22;12791;50.992;13.788;2024-03-29T17:16:08;14.50;50.00
24664;DHT22;12791;50.992;13.788;2024-03-29T17:18:34;15.00;51.10
24664;DHT22;12791;50.992;13.788;2024-03-29T17:21:00;14.80;51.70
24664;DHT22;12791;50.992;13.788;2024-03-29T17:23:27;14.40;51.40
24664;DHT22;12791;50.992;13.788;2024-03-29T17:25:54;14.40;52.80
24664;DHT22;12791;50.992;13.788;2024-03-29T17:28:20;14.30;53.30
24664;DHT22;12791;50.992;13.788;2024-03-29T17:30:46;14.30;53.50
24664;DHT22;12791;50.992;13.788;2024-03-29T17:33:12;14.30;54.00
24664;DHT22;12791;50.992;13.788;2024-03-29T17:35:39;14.20;54.60
24664;DHT22;12791;50.992;13.788;2024-03-29T17:38:04;14.20;54.90
24664;DHT22;12791;50.992;13.788;2024-03-29T17:40:32;14.10;54.60
24664;DHT22;12791;50.992;13.788;2024-03-29T17:42:58;14.10;54.30
24664;DHT22;12791;50.992;13.788;2024-03-29T17:45:25;14.00;54.90
24664;DHT22;12791;50.992;13.788;2024-03-29T17:47:51;14.00;56.00
24664;DHT22;12791;50.992;13.788;2024-03-29T17:50:18;14.00;56.40
24664;DHT22;12791;50.992;13.788;2024-03-29T17:52:43;13.90;56.30
24664;DHT22;12791;50.992;13.788;2024-03-29T17:55:11;13.90;55.70
24664;DHT22;12791;50.992;13.788;2024-03-29T17:57:38;13.90;54.80
24664;DHT22;12791;50.992;13.788;2024-03-29T18:00:06;13.90;52.70
24664;DHT22;12791;50.992;13.788;2024-03-29T18:02:34;13.90;51.80
24664;DHT22;12791;50.992;13.788;2024-03-29T18:05:00;13.90;51.90
24664;DHT22;12791;50.992;13.788;2024-03-29T18:07:26;13.90;51.30
24664;DHT22;12791;50.992;13.788;2024-03-29T18:09:53;13.90;50.90
24664;DHT22;12791;50.992;13.788;2024-03-29T18:12:18;14.20;50.80
24664;DHT22;12791;50.992;13.788;2024-03-29T18:14:46;13.90;50.00
24664;DHT22;12791;50.992;13.788;2024-03-29T18:17:13;13.90;49.10
24664;DHT22;12791;50.992;13.788;2024-03-29T18:19:39;14.00;48.50
24664;DHT22;12791;50.992;13.788;2024-03-29T18:22:05;13.90;48.00
24664;DHT22;12791;50.992;13.788;2024-03-29T18:24:32;14.00;47.60
24664;DHT22;12791;50.992;13.788;2024-03-29T18:26:57;14.00;47.20
24664;DHT22;12791;50.992;13.788;2024-03-29T18:29:24;14.00;46.90
24664;DHT22;12791;50.992;13.788;2024-03-29T18:31:51;14.00;46.40
24664;DHT22;12791;50.992;13.788;2024-03-29T18:34:17;14.00;46.30
24664;DHT22;12791;50.992;13.788;2024-03-29T18:36:43;14.00;46.30
24664;DHT22;12791;50.992;13.788;2024-03-29T18:39:12;14.00;46.40
24664;DHT22;12791;50.992;13.788;2024-03-29T18:41:38;14.00;46.40
24664;DHT22;12791;50.992;13.788;2024-03-29T18:44:05;14.00;46.60
24664;DHT22;12791;50.992;13.788;2024-03-29T18:46:31;14.00;46.90
24664;DHT22;12791;50.992;13.788;2024-03-29T18:48:59;14.00;47.30
24664;DHT22;12791;50.992;13.788;2024-03-29T18:51:24;13.90;47.20
24664;DHT22;12791;50.992;13.788;2024-03-29T18:53:51;14.00;47.50
24664;DHT22;12791;50.992;13.788;2024-03-29T18:56:18;13.90;47.50
24664;DHT22;12791;50.992;13.788;2024-03-29T18:58:44;13.80;48.60
24664;DHT22;12791;50.992;13.788;2024-03-29T19:01:10;13.80;49.60
24664;DHT22;12791;50.992;13.788;2024-03-29T19:03:38;13.70;50.80
24664;DHT22;12791;50.992;13.788;2024-03-29T19:06:07;13.60;52.20
24664;DHT22;12791;50.992;13.788;2024-03-29T19:08:33;13.50;52.80
24664;DHT22;12791;50.992;13.788;2024-03-29T19:10:59;13.40;52.60
24664;DHT22;12791;50.992;13.788;2024-03-29T19:13:25;13.30;52.50
24664;DHT22;12791;50.992;13.788;2024-03-29T19:15:52;13.30;52.10
24664;DHT22;12791;50.992;13.788;2024-03-29T19:18:18;13.30;51.90
24664;DHT22;12791;50.992;13.788;2024-03-29T19:20:45;13.30;51.90
24664;DHT22;12791;50.992;13.788;2024-03-29T19:23:12;13.10;52.00
24664;DHT22;12791;50.992;13.788;2024-03-29T19:25:39;13.10;52.00
24664;DHT22;12791;50.992;13.788;2024-03-29T19:28:05;13.10;52.10
24664;DHT22;12791;50.992;13.788;2024-03-29T19:30:32;13.10;51.60
24664;DHT22;12791;50.992;13.788;2024-03-29T19:32:59;13.10;50.80
24664;DHT22;12791;50.992;13.788;2024-03-29T19:35:26;13.10;50.90
24664;DHT22;12791;50.992;13.788;2024-03-29T19:37:52;13.10;51.10
24664;DHT22;12791;50.992;13.788;2024-03-29T19:40:20;13.10;51.50
24664;DHT22;12791;50.992;13.788;2024-03-29T19:42:46;13.10;50.60
24664;DHT22;12791;50.992;13.788;2024-03-29T19:45:13;13.20;50.00
24664;DHT22;12791;50.992;13.788;2024-03-29T19:47:39;13.20;49.00
24664;DHT22;12791;50.992;13.788;2024-03-29T19:50:06;13.20;48.30
24664;DHT22;12791;50.992;13.788;2024-03-29T19:52:33;13.30;47.90
24664;DHT22;12791;50.992;13.788;2024-03-29T19:55:00;13.20;47.30
24664;DHT22;12791;50.992;13.788;2024-03-29T19:57:27;13.30;47.00
24664;DHT22;12791;50.992;13.788;2024-03-29T19:59:53;13.30;47.00
24664;DHT22;12791;50.992;13.788;2024-03-29T20:02:19;13.30;46.90
24664;DHT22;12791;50.992;13.788;2024-03-29T20:04:45;13.30;47.30
24664;DHT22;12791;50.992;13.788;2024-03-29T20:07:11;13.30;48.00
24664;DHT22;12791;50.992;13.788;2024-03-29T20:09:38;13.20;49.00
24664;DHT22;12791;50.992;13.788;2024-03-29T20:12:04;13.10;50.20
24664;DHT22;12791;50.992;13.788;2024-03-29T20:14:32;13.10;50.70
24664;DHT22;12791;50.992;13.788;2024-03-29T20:16:58;13.00;51.30
24664;DHT22;12791;50.992;13.788;2024-03-29T20:19:28;12.90;51.30
24664;DHT22;12791;50.992;13.788;2024-03-29T20:21:54;12.90;51.70